Flight Track Log - Related Links

Times and Time Zones

All times are in EDT time to prevent confusion due to time zone crossing. See the AAL1432 flight status page for this flight to view local times or setup timezone preferences in your user account.

Time Position Orientation Groundspeed Altitude Reporting Facility
EDT Latitude Longitude Course Direction KTS MPH feet Rate Location/Type
08:40PM 32.7862 -96.9943 141° Southeast 246 283 4,600  Level FlightAware ADS-B
08:40PM 32.7752 -96.9730 110° East 253 291 5,100 1,674 Climbing FlightAware ADS-B
08:40PM 32.7684 -96.9484 106° East 259 298 5,800 2,195 Climbing FlightAware ADS-B
08:41PM 32.7661 -96.9326 94° East 262 302 6,600 2,714 Climbing FlightAware ADS-B
08:41PM 32.7668 -96.8762 88° East 289 333 7,700 2,100 Climbing FlightAware ADS-B
08:41PM 32.7661 -96.9326 94° East 262 302 8,000 1,500 Climbing FlightAware ADS-B
08:42PM 32.7735 -96.8198 71° East 304 350 8,700 2,108 Climbing FlightAware ADS-B
08:42PM 32.7822 -96.7973 64° Northeast 308 354 9,300 2,589 Climbing FlightAware ADS-B
08:44PM 32.8072 -96.7363 64° Northeast 335 386 15,000 2,429 Climbing FlightAware ADS-B
08:47PM 32.7822 -96.7973 64° Northeast 308 354 21,000 2,005 Climbing FlightAware ADS-B
08:51PM 33.0601 -95.6755 81° East 483 556 27,800 1,874 Climbing FlightAware ADS-B (KHOU)
08:51PM 33.0706 -95.5972 80° East 480 552 28,900 1,815 Climbing FlightAware ADS-B (KHOU)
08:53PM 33.1314 -95.3762 70° East 476 548 31,400 1,736 Climbing FlightAware ADS-B (KHOU)
08:53PM 33.1498 -95.3150 70° East 471 542 32,400 1,680 Climbing FlightAware ADS-B (KHOU)
08:54PM 33.1866 -95.1917 70° East 471 542 33,500 1,416 Climbing FlightAware ADS-B (KHOU)
08:55PM 33.2180 -95.0858 70° East 467 537 34,500 1,313 Climbing FlightAware ADS-B (KHOU)
08:55PM 33.2242 -95.0649 71° East 466 536 34,900 1,034 Climbing FlightAware ADS-B
08:55PM 33.2385 -95.0170 70° East 468 539 35,000 1,050 Climbing FlightAware ADS-B (KHOU)
08:56PM 33.2622 -94.9374 71° East 469 540 35,600 1,082 Climbing FlightAware ADS-B
08:56PM 33.2841 -94.8628 70° East 468 539 36,100 1,050 Climbing FlightAware ADS-B (KHOU)
08:56PM 33.2909 -94.8397 71° East 468 539 36,300 1,000 Climbing FlightAware ADS-B
08:57PM 33.3054 -94.7903 70° East 467 537 36,600 1,000 Climbing FlightAware ADS-B (KHOU)
08:57PM 33.3255 -94.7213 71° East 466 536 37,100 968 Climbing FlightAware ADS-B
08:57PM 33.3274 -94.7150 70° East 466 536 37,100 882 Level FlightAware ADS-B (KHOU)
08:58PM 33.3486 -94.6427 70° East 465 535 37,600 842 Climbing FlightAware ADS-B (KHOU)
08:58PM 33.3631 -94.5930 70° East 465 535 37,900 737 Climbing FlightAware ADS-B (KHOU)
08:59PM 33.3898 -94.5019 71° East 465 535 38,300 649 Climbing FlightAware ADS-B
08:59PM 33.3945 -94.4858 70° East 465 535 38,300 563 Level FlightAware ADS-B (KHOU)
08:59PM 33.4111 -94.4291 71° East 466 536 38,600 800 Climbing FlightAware ADS-B
08:59PM 33.4134 -94.4213 70° East 465 535 38,700 500 Climbing FlightAware ADS-B (KHOU)
09:00PM 33.4371 -94.3398 70° East 466 536 38,900 563 Climbing FlightAware ADS-B (KHOU)
09:00PM 33.4384 -94.3354 71° East 467 537 39,000 176 Climbing FlightAware ADS-B
09:00PM 33.4620 -94.2538 71° East 471 542 39,000  Level FlightAware ADS-B
09:01PM 33.4835 -94.1797 70° East 475 547 39,000  Level FlightAware ADS-B (KHOU)
09:01PM 33.4995 -94.1243 71° East 481 554 39,000  Level FlightAware ADS-B (KHOU)
09:01PM 33.5131 -94.0782 69° East 481 554 39,000  Level FlightAware ADS-B
09:02PM 33.5082 -94.0939 70° East 481 554 39,000  Level FlightAware ADS-B (KHOU)
09:02PM 33.5461 -93.9916 65° Northeast 486 559 39,000  Level FlightAware ADS-B
09:03PM 33.5782 -93.9082 65° Northeast 487 560 39,000  Level FlightAware ADS-B
09:03PM 33.6056 -93.8371 65° Northeast 488 562 39,000  Level FlightAware ADS-B
09:04PM 33.6343 -93.7625 65° Northeast 488 562 39,000  Level FlightAware ADS-B
09:05PM 33.6905 -93.6173 65° Northeast 490 564 39,000  Level FlightAware ADS-B
09:05PM 33.7189 -93.5435 65° Northeast 491 565 39,000  Level FlightAware ADS-B
09:06PM 33.8028 -93.3248 65° Northeast 493 567 39,000  Level FlightAware ADS-B
09:12PM 33.7938 -93.3483 66° East 496 571 39,000  Level FlightAware ADS-B
09:17PM 34.3819 -91.7717 66° East 489 563 39,000  Level FlightAware ADS-B
09:18PM 34.4194 -91.6684 66° East 489 563 39,000  Level FlightAware ADS-B
09:18PM 34.4521 -91.5784 66° East 489 563 39,000  Level FlightAware ADS-B
09:19PM 34.4928 -91.4654 67° East 490 564 39,000  Level FlightAware ADS-B
09:20PM 34.5288 -91.3655 67° East 490 564 39,000  Level FlightAware ADS-B
09:20PM 34.5629 -91.2705 67° East 490 564 39,000  Level FlightAware ADS-B
09:21PM 34.6009 -91.1644 67° East 490 564 39,000  Level FlightAware ADS-B
09:22PM 34.6364 -91.0651 67° East 490 564 39,000  Level FlightAware ADS-B
09:22PM 34.6704 -90.9691 67° East 490 564 39,000  Level FlightAware ADS-B
09:23PM 34.7064 -90.8678 67° East 490 564 39,000  Level FlightAware ADS-B
09:24PM 34.7395 -90.7742 67° East 490 564 39,000  Level FlightAware ADS-B
09:24PM 34.7796 -90.6601 67° East 491 565 39,000  Level FlightAware ADS-B
09:25PM 34.8336 -90.5058 67° East 492 566 39,000  Level FlightAware ADS-B
09:26PM 34.8684 -90.4063 67° East 492 566 39,000  Level FlightAware ADS-B
09:27PM 34.9117 -90.2847 67° East 489 563 39,000  Level Memphis Center
09:28PM 34.9658 -90.1308 67° East 489 563 39,000  Level Memphis Center
09:29PM 35.0194 -89.9758 67° East 489 563 39,000  Level Memphis Center
09:30PM 35.0744 -89.8200 67° East 490 564 39,000  Level Memphis Center
09:31PM 35.1292 -89.6669 66° East 489 563 39,000  Level Memphis Center
09:32PM 35.1822 -89.5153 67° East 489 563 39,000  Level Memphis Center
09:33PM 35.2353 -89.3656 67° East 484 557 39,000  Level Memphis Center
09:34PM 35.2872 -89.2153 67° East 482 555 39,000  Level Memphis Center
09:35PM 35.3400 -89.0642 67° East 482 555 39,000  Level Memphis Center
09:36PM 35.3931 -88.9144 66° East 482 555 39,000  Level Memphis Center
09:37PM 35.4550 -88.7364 67° East 482 555 39,000  Level Memphis Center
09:42PM 35.7308 -87.9236 68° East 489 563 39,000  Level FlightAware ADS-B (KMDQ)
09:44PM 35.8168 -87.6644 68° East 490 564 39,000  Level FlightAware ADS-B (KMDQ)
09:45PM 35.8427 -87.5855 68° East 490 564 39,000  Level FlightAware ADS-B (KMDQ)
09:49PM 36.0552 -86.9382 68° East 495 570 39,000  Level FlightAware ADS-B (KMDQ)
09:49PM 36.0927 -86.8219 68° East 495 570 39,000  Level FlightAware ADS-B (KMDQ)
09:50PM 36.1244 -86.7237 68° East 496 571 39,000  Level FlightAware ADS-B (KMDQ)
09:51PM 36.1612 -86.6096 68° East 497 572 39,000  Level FlightAware ADS-B (KMDQ)
09:51PM 36.1939 -86.5097 68° East 497 572 39,000  Level FlightAware ADS-B (KMDQ)
09:52PM 36.2229 -86.4203 68° East 497 572 39,000  Level FlightAware ADS-B (KMDQ)
09:53PM 36.2581 -86.3114 68° East 494 568 39,000  Level Indianapolis Center
09:54PM 36.3501 -86.0221 69° East 496 571 39,000  Level FlightAware ADS-B (EPWR / WRO)
09:55PM 36.3931 -85.8856 69° East 495 570 39,000  Level Memphis Center
09:56PM 36.4467 -85.7228 68° East 495 570 39,000  Level Memphis Center
09:57PM 36.4956 -85.5636 69° East 494 568 39,000  Level Memphis Center
09:58PM 36.5456 -85.4053 69° East 494 568 39,000  Level Memphis Center
09:59PM 36.5942 -85.2467 69° East 492 566 39,000  Level Memphis Center
10:00PM 36.6447 -85.0889 68° East 491 565 39,000  Level Memphis Center
10:02PM 36.6939 -84.9275 69° East 491 565 39,000  Level Memphis Center
10:03PM 36.7617 -84.7022 69° East 493 567 39,000  Level Indianapolis Center
10:04PM 36.8103 -84.5400 69° East 494 568 39,000  Level Indianapolis Center
10:05PM 36.8567 -84.3889 69° East 499 574 39,000  Level Indianapolis Center
10:06PM 36.9125 -84.1978 70° East 500 575 39,000  Level Indianapolis Center
10:07PM 36.9619 -84.0322 69° East 502 578 39,000  Level Indianapolis Center
10:08PM 37.0114 -83.8656 70° East 505 581 39,000  Level Indianapolis Center
10:09PM 37.0614 -83.6975 70° East 510 587 39,000  Level Indianapolis Center
10:10PM 37.1111 -83.5278 70° East 513 590 39,000  Level Indianapolis Center
10:11PM 37.1597 -83.3572 70° East 513 590 39,000  Level Indianapolis Center
10:12PM 37.2100 -83.1853 70° East 516 594 39,000  Level Indianapolis Center
10:13PM 37.2600 -83.0125 70° East 517 595 39,000  Level Indianapolis Center
10:14PM 37.3083 -82.8400 71° East 517 595 39,000  Level Indianapolis Center
10:15PM 37.3569 -82.6700 70° East 517 595 39,000  Level Indianapolis Center
10:16PM 37.4044 -82.5011 70° East 514 592 39,000  Level Indianapolis Center
10:17PM 37.4517 -82.3311 71° East 514 592 39,000  Level Indianapolis Center
10:18PM 37.4983 -82.1622 71° East 513 590 39,000  Level Indianapolis Center
10:19PM 37.5444 -81.9942 71° East 512 589 39,000  Level Indianapolis Center
10:20PM 37.5978 -81.8019 71° East 501 577 39,000  Level Indianapolis Center
10:21PM 37.6428 -81.6347 71° East 501 577 39,000  Level Indianapolis Center
10:22PM 37.6833 -81.4856 71° East 501 577 39,000  Level Indianapolis Center
10:23PM 37.7264 -81.3250 71° East 499 574 39,000  Level Indianapolis Center
10:24PM 37.7781 -81.1319 71° East 499 574 39,000  Level Indianapolis Center
10:25PM 37.8308 -80.9750 67° East 494 568 39,000  Level Indianapolis Center
10:26PM 37.8886 -80.8178 65° Northeast 494 568 39,000  Level Indianapolis Center
10:27PM 37.9453 -80.6594 66° East 494 568 39,000 -344 Level Indianapolis Center
10:28PM 38.0008 -80.5011 66° East 494 568 38,300 -750 Descending Indianapolis Center
10:29PM 38.0519 -80.3553 66° East 494 568 37,500 -900 Descending Washington Center
10:30PM 38.1072 -80.1975 66° East 498 573 36,500 -1,033 Descending Washington Center
10:31PM 38.1753 -80.0075 65° Northeast 501 577 35,400 -976 Descending Washington Center
10:32PM 38.2311 -79.8469 66° East 503 579 34,500 -927 Descending Washington Center
10:33PM 38.2869 -79.6869 66° East 504 580 33,500 -934 Descending Washington Center
10:34PM 38.3422 -79.5281 66° East 505 581 32,600 -984 Descending Washington Center
10:35PM 38.3956 -79.3731 66° East 495 570 31,500 -1,328 Descending Washington Center
10:36PM 38.4419 -79.1836 73° East 481 554 29,900 -1,728 Descending Washington Center
10:37PM 38.4683 -79.0306 78° East 458 527 27,900 -1,872 Descending Washington Center
10:38PM 38.4947 -78.8806 77° East 446 513 26,000 -1,854 Descending Washington Center
10:39PM 38.5183 -78.7383 78° East 432 497 24,100 -1,753 Descending Washington Center
10:46PM 38.6487 -77.8459 91° East 371 427 13,200 -1,603 Descending FlightAware ADS-B (KDAA)
10:46PM 38.6471 -77.7739 92° East 368 423 13,200  Level FlightAware ADS-B (KDAA)
10:47PM 38.6452 -77.7108 92° East 370 426 13,200  Level FlightAware ADS-B (KDAA)
10:47PM 38.6435 -77.6497 92° East 372 428 13,200 -1,000 Level FlightAware ADS-B (KDAA)
10:48PM 38.6412 -77.5784 92° East 370 426 12,200 -2,100 Descending FlightAware ADS-B (KDAA)
10:48PM 38.6394 -77.5173 92° East 361 415 11,100 -1,600 Descending FlightAware ADS-B (KDAA)
10:49PM 38.6376 -77.4507 91° East 334 384 10,600 -1,200 Descending FlightAware ADS-B (KDAA)
10:49PM 38.6363 -77.3945 91° East 316 364 9,900 -1,435 Descending FlightAware ADS-B (KDAA)
10:50PM 38.6355 -77.3690 92° East 314 361 9,500 -1,800 Descending FlightAware ADS-B (KDAA)
10:50PM 38.6345 -77.3384 92° East 314 361 9,000 -1,862 Descending FlightAware ADS-B (KDAA)
10:50PM 38.6338 -77.3144 92° East 310 357 8,600 -1,200 Descending FlightAware ADS-B (KDAA)
10:50PM 38.6328 -77.2852 92° East 300 345 8,400 -800 Descending FlightAware ADS-B (KDAA)
10:51PM 38.6321 -77.2612 92° East 286 329 8,200 -343 Descending FlightAware ADS-B (KDAA)
10:51PM 38.6310 -77.2267 92° East 263 303 8,200  Level FlightAware ADS-B (KDAA)
10:51PM 38.6300 -77.1979 91° East 238 274 8,200 -686 Level FlightAware ADS-B (KDAA)
10:51PM 38.6295 -77.1775 91° East 232 267 7,800 -1,765 Descending FlightAware ADS-B (KDAA)
10:52PM 38.6294 -77.1724 92° East 233 268 7,700 -1,600 Descending FlightAware ADS-B
10:52PM 38.6289 -77.1563 91° East 232 267 7,400 -1,750 Descending FlightAware ADS-B (KDAA)
10:52PM 38.6284 -77.1412 93° East 231 266 7,000 -2,000 Descending FlightAware ADS-B (KDAA)
10:52PM 38.6275 -77.1331 98° East 233 268 6,800 -1,615 Descending FlightAware ADS-B (KDAA)
10:52PM 38.6263 -77.1043 90° East 230 265 6,300 -1,600 Descending FlightAware ADS-B (KDAA)
10:53PM 38.6262 -77.0909 91° East 226 260 6,000 -1,800 Descending FlightAware ADS-B
10:53PM 38.6261 -77.0776 90° East 228 262 5,700 -2,192 Descending FlightAware ADS-B (KDAA)
10:53PM 38.6320 -77.0253 58° Northeast 213 245 4,100 -2,160 Descending FlightAware ADS-B (KDAA)
10:54PM 38.6349 -77.0194 56° Northeast 209 241 3,900 -1,000 Descending FlightAware ADS-B
10:54PM 38.6668 -77.0137 58° Northeast 213 245 3,300 -632 Descending FlightAware ADS-B (KDAA)
10:54PM 38.6794 -77.0188 58° Northeast 213 245 3,300  Level FlightAware ADS-B (KDAA)
10:55PM 38.6825 -77.0196 349° North 173 199 3,300 -706 Level FlightAware ADS-B (KDAA)
10:55PM 38.6929 -77.0218 351° North 171 197 3,100 -909 Descending FlightAware ADS-B
10:55PM 38.7080 -77.0236 357° North 166 191 2,800 -878 Descending FlightAware ADS-B (KDAA)
10:55PM 38.7235 -77.0250 357° North 165 190 2,500 -923 Descending FlightAware ADS-B (KDAA)
10:56PM 38.7370 -77.0263 355° North 152 175 2,200 -923 Descending FlightAware ADS-B
10:56PM 38.7425 -77.0269 355° North 148 170 2,100 -706 Descending FlightAware ADS-B (KDAA)
10:56PM 38.7587 -77.0285 355° North 148 170 1,800 -792 Descending FlightAware ADS-B (KDAA)
10:57PM 38.7789 -77.0305 356° North 147 169 1,400 -759 Descending FlightAware ADS-B
10:58PM 38.8183 -77.0344 355° North 136 157 700 -700 Descending FlightAware ADS-B

Login

Don't have an account? Register now (free) for customized features, flight alerts, and more!